createdAt,value
2018-06-12T00:00:38.462Z,997.06
2018-06-12T00:01:38.485Z,997.07
2018-06-12T00:02:38.509Z,997.08
2018-06-12T00:03:38.536Z,997.1
2018-06-12T00:04:38.563Z,997.08
2018-06-12T00:05:38.587Z,997.09
2018-06-12T00:06:38.608Z,997.07
2018-06-12T00:07:38.637Z,997.06
2018-06-12T00:08:38.663Z,997.11
2018-06-12T00:09:38.689Z,997.09
2018-06-12T00:10:38.718Z,997.06
2018-06-12T00:11:38.736Z,997.06
2018-06-12T00:12:38.765Z,997.07
2018-06-12T00:13:38.789Z,997.07
2018-06-12T00:14:38.860Z,997.11
2018-06-12T00:15:38.847Z,997.15
2018-06-12T00:16:38.863Z,997.18
2018-06-12T00:17:38.891Z,997.16
2018-06-12T00:18:38.917Z,997.19
2018-06-12T00:19:38.938Z,997.2
2018-06-12T00:20:38.965Z,997.18
2018-06-12T00:21:38.993Z,997.21
2018-06-12T00:22:39.038Z,997.18
2018-06-12T00:23:39.043Z,997.16
2018-06-12T00:24:39.069Z,997.18
2018-06-12T00:25:39.141Z,997.16
2018-06-12T00:26:39.116Z,997.18
2018-06-12T00:27:39.151Z,997.2
2018-06-12T00:28:39.172Z,997.18
2018-06-12T00:29:39.192Z,997.2
2018-06-12T00:30:39.218Z,997.18
2018-06-12T00:31:39.247Z,997.18
2018-06-12T00:32:39.277Z,997.18
2018-06-12T00:33:39.298Z,997.2
2018-06-12T00:34:39.326Z,997.21
2018-06-12T00:35:39.343Z,997.25
2018-06-12T00:36:39.371Z,997.26
2018-06-12T00:37:39.400Z,997.25
2018-06-12T00:38:39.420Z,997.23
2018-06-12T00:39:39.449Z,997.24
2018-06-12T00:40:39.475Z,997.24
2018-06-12T00:41:39.499Z,997.22
2018-06-12T00:42:39.525Z,997.22
2018-06-12T00:43:39.545Z,997.23
2018-06-12T00:44:39.577Z,997.22
2018-06-12T00:45:39.600Z,997.26
2018-06-12T00:46:39.631Z,997.28
2018-06-12T00:47:39.649Z,997.24
2018-06-12T00:48:39.682Z,997.24
2018-06-12T00:49:39.702Z,997.21
2018-06-12T00:50:39.725Z,997.24
2018-06-12T00:51:39.752Z,997.26
2018-06-12T00:52:39.778Z,997.31
2018-06-12T00:53:39.800Z,997.29
2018-06-12T00:54:39.823Z,997.31
2018-06-12T00:55:39.857Z,997.29
2018-06-12T00:56:39.874Z,997.27
2018-06-12T00:57:39.905Z,997.27
2018-06-12T00:58:39.928Z,997.27
2018-06-12T00:59:39.956Z,997.25
2018-06-12T01:00:39.982Z,997.27
2018-06-12T01:01:39.998Z,997.26
2018-06-12T01:02:40.029Z,997.24
2018-06-12T01:03:40.058Z,997.27
2018-06-12T01:04:40.077Z,997.29
2018-06-12T01:05:40.103Z,997.3
2018-06-12T01:06:40.125Z,997.31
2018-06-12T01:07:40.156Z,997.39
2018-06-12T01:08:40.176Z,997.38
2018-06-12T01:09:40.207Z,997.34
2018-06-12T01:10:40.231Z,997.38
2018-06-12T01:11:40.253Z,997.4
2018-06-12T01:12:40.275Z,997.41
2018-06-12T01:13:40.302Z,997.44
2018-06-12T01:14:40.333Z,997.39
2018-06-12T01:15:40.358Z,997.4
2018-06-12T01:16:40.387Z,997.39
2018-06-12T01:17:40.401Z,997.38
2018-06-12T01:18:40.423Z,997.4
2018-06-12T01:19:40.452Z,997.41
2018-06-12T01:20:40.476Z,997.38
2018-06-12T01:21:40.503Z,997.43
2018-06-12T01:22:40.525Z,997.45
2018-06-12T01:23:40.548Z,997.46
2018-06-12T01:24:40.577Z,997.48
2018-06-12T01:25:40.599Z,997.47
2018-06-12T01:26:40.630Z,997.47
2018-06-12T01:27:40.650Z,997.5
2018-06-12T01:28:40.682Z,997.49
2018-06-12T01:29:40.706Z,997.48
2018-06-12T01:30:40.728Z,997.53
2018-06-12T01:31:40.748Z,997.52
2018-06-12T01:32:40.787Z,997.54
2018-06-12T01:33:40.801Z,997.56
2018-06-12T01:34:40.825Z,997.51
2018-06-12T01:35:40.904Z,997.55
2018-06-12T01:36:40.885Z,997.52
2018-06-12T01:37:40.896Z,997.53
2018-06-12T01:38:40.941Z,997.51
2018-06-12T01:39:40.949Z,997.48
2018-06-12T01:40:40.979Z,997.46
2018-06-12T01:41:40.999Z,997.55
2018-06-12T01:42:41.024Z,997.51
2018-06-12T01:43:41.056Z,997.5
2018-06-12T01:44:41.079Z,997.48
2018-06-12T01:45:41.101Z,997.48
2018-06-12T01:46:41.131Z,997.49
2018-06-12T01:47:41.148Z,997.49
2018-06-12T01:48:41.180Z,997.48
2018-06-12T01:49:41.201Z,997.5
2018-06-12T01:50:41.222Z,997.52
2018-06-12T01:51:41.246Z,997.5
2018-06-12T01:52:41.273Z,997.48
2018-06-12T01:53:41.296Z,997.5
2018-06-12T01:54:41.323Z,997.52
2018-06-12T01:55:41.344Z,997.51
2018-06-12T01:56:41.374Z,997.47
2018-06-12T01:57:41.398Z,997.54
2018-06-12T01:58:41.428Z,997.52
2018-06-12T01:59:41.446Z,997.55
2018-06-12T02:00:41.472Z,997.56
2018-06-12T02:01:41.495Z,997.58
2018-06-12T02:02:41.522Z,997.6
2018-06-12T02:03:41.542Z,997.6
2018-06-12T02:04:41.569Z,997.61
2018-06-12T02:05:41.592Z,997.6
2018-06-12T02:06:41.616Z,997.6
2018-06-12T02:07:41.650Z,997.6
2018-06-12T02:08:41.670Z,997.59
2018-06-12T02:09:41.690Z,997.56
2018-06-12T02:10:41.715Z,997.58
2018-06-12T02:11:41.745Z,997.59
2018-06-12T02:12:41.770Z,997.64
2018-06-12T02:13:41.789Z,997.65
2018-06-12T02:14:41.821Z,997.62
2018-06-12T02:15:41.846Z,997.67
2018-06-12T02:16:41.864Z,997.64
2018-06-12T02:17:41.906Z,997.66
2018-06-12T02:18:41.920Z,997.66
2018-06-12T02:19:41.940Z,997.64
2018-06-12T02:20:41.969Z,997.62
2018-06-12T02:21:41.988Z,997.6
2018-06-12T02:22:42.016Z,997.62
2018-06-12T02:23:42.085Z,997.61
2018-06-12T02:24:42.068Z,997.6
2018-06-12T02:25:42.084Z,997.59
2018-06-12T02:26:42.117Z,997.61
2018-06-12T02:27:42.138Z,997.64
2018-06-12T02:28:42.165Z,997.64
2018-06-12T02:29:42.189Z,997.68
2018-06-12T02:30:42.215Z,997.64
2018-06-12T02:31:42.239Z,997.65
2018-06-12T02:32:42.263Z,997.65
2018-06-12T02:33:42.285Z,997.65
2018-06-12T02:34:42.319Z,997.63
2018-06-12T02:35:42.332Z,997.65
2018-06-12T02:36:42.360Z,997.71
2018-06-12T02:37:42.381Z,997.69
2018-06-12T02:38:42.404Z,997.69
2018-06-12T02:39:42.437Z,997.72
2018-06-12T02:40:42.459Z,997.71
2018-06-12T02:41:42.479Z,997.78
2018-06-12T02:42:42.506Z,997.76
2018-06-12T02:43:42.527Z,997.77
2018-06-12T02:44:42.669Z,997.82
2018-06-12T02:45:42.577Z,997.77
2018-06-12T02:46:42.598Z,997.8
2018-06-12T02:47:42.627Z,997.81
2018-06-12T02:48:42.652Z,997.86
2018-06-12T02:49:42.674Z,997.79
2018-06-12T02:50:42.707Z,997.86
2018-06-12T02:51:42.722Z,997.88
2018-06-12T02:52:42.748Z,997.88
2018-06-12T02:53:42.774Z,997.92
2018-06-12T02:54:42.797Z,997.94
2018-06-12T02:55:42.827Z,997.94
2018-06-12T02:56:42.843Z,997.96
2018-06-12T02:57:42.870Z,997.98
2018-06-12T02:58:42.900Z,997.99
2018-06-12T02:59:42.920Z,998.01
2018-06-12T03:00:42.939Z,997.99
2018-06-12T03:01:42.970Z,997.97
2018-06-12T03:02:42.987Z,997.99
2018-06-12T03:03:43.013Z,998
2018-06-12T03:04:43.037Z,998
2018-06-12T03:05:43.069Z,997.97
2018-06-12T03:06:43.091Z,998.02
2018-06-12T03:07:43.117Z,998.01
2018-06-12T03:08:43.144Z,998.01
2018-06-12T03:09:43.157Z,997.99
2018-06-12T03:10:43.181Z,998.06
2018-06-12T03:11:43.209Z,998.04
2018-06-12T03:12:43.234Z,998.05
2018-06-12T03:13:43.258Z,998.06
2018-06-12T03:14:43.280Z,998.04
2018-06-12T03:15:43.306Z,998.05
2018-06-12T03:16:43.326Z,998.07
2018-06-12T03:17:43.354Z,998.09
2018-06-12T03:18:43.383Z,998.07
2018-06-12T03:19:43.403Z,998.09
2018-06-12T03:20:43.424Z,998.06
2018-06-12T03:21:43.451Z,998.05
2018-06-12T03:22:43.475Z,998.03
2018-06-12T03:23:43.504Z,998.02
2018-06-12T03:24:43.529Z,998.03
2018-06-12T03:25:43.545Z,998
2018-06-12T03:26:43.571Z,997.99
2018-06-12T03:27:43.593Z,998.03
2018-06-12T03:28:43.627Z,997.95
2018-06-12T03:29:43.646Z,998
2018-06-12T03:30:43.670Z,997.96
2018-06-12T03:31:43.689Z,997.95
2018-06-12T03:32:43.721Z,997.99
2018-06-12T03:33:43.741Z,997.99
2018-06-12T03:34:43.767Z,998.04
2018-06-12T03:35:43.794Z,998.06
2018-06-12T03:36:43.814Z,998.03
2018-06-12T03:37:43.835Z,998.06
2018-06-12T03:38:43.863Z,998.06
2018-06-12T03:39:43.883Z,998.02
2018-06-12T03:40:43.913Z,998.07
2018-06-12T03:41:43.934Z,998.07
2018-06-12T03:42:43.966Z,998.05
2018-06-12T03:43:43.984Z,998.06
2018-06-12T03:44:44.009Z,998.08
2018-06-12T03:45:44.037Z,998.05
2018-06-12T03:46:44.055Z,998.05
2018-06-12T03:47:44.082Z,998.06
2018-06-12T03:48:44.109Z,998.09
2018-06-12T03:49:44.132Z,998.09
2018-06-12T03:50:44.153Z,998.09
2018-06-12T03:51:44.177Z,998.09
2018-06-12T03:52:44.197Z,998.09
2018-06-12T03:53:44.224Z,998.09
2018-06-12T03:54:44.253Z,998.11
2018-06-12T03:55:44.274Z,998.09
2018-06-12T03:56:44.300Z,998.07
2018-06-12T03:57:44.325Z,998.1
2018-06-12T03:58:44.348Z,998.1
2018-06-12T03:59:44.364Z,998.13
2018-06-12T04:00:44.387Z,998.09
2018-06-12T04:01:44.417Z,998.13
2018-06-12T04:02:44.444Z,998.11
2018-06-12T04:03:44.463Z,998.14
2018-06-12T04:04:44.486Z,998.13
2018-06-12T04:05:44.514Z,998.09
2018-06-12T04:06:44.537Z,998.15
2018-06-12T04:07:44.623Z,998.17
2018-06-12T04:08:44.583Z,998.17
2018-06-12T04:09:44.608Z,998.21
2018-06-12T04:10:44.632Z,998.16
2018-06-12T04:11:44.663Z,998.21
2018-06-12T04:12:44.683Z,998.2
2018-06-12T04:13:44.705Z,998.21
2018-06-12T04:14:44.733Z,998.17
2018-06-12T04:15:44.749Z,998.2
2018-06-12T04:16:44.774Z,998.16
2018-06-12T04:17:44.798Z,998.19
2018-06-12T04:18:44.826Z,998.19
2018-06-12T04:19:44.849Z,998.24
2018-06-12T04:20:44.866Z,998.26
2018-06-12T04:21:44.897Z,998.27
2018-06-12T04:22:44.924Z,998.27
2018-06-12T04:23:44.946Z,998.28
2018-06-12T04:24:44.964Z,998.28
2018-06-12T04:25:44.992Z,998.31
2018-06-12T04:26:45.010Z,998.29
2018-06-12T04:27:45.041Z,998.35
2018-06-12T04:28:45.066Z,998.32
2018-06-12T04:29:45.080Z,998.33
2018-06-12T04:30:45.120Z,998.33
2018-06-12T04:31:45.130Z,998.41
2018-06-12T04:32:45.156Z,998.42
2018-06-12T04:33:45.180Z,998.38
2018-06-12T04:34:45.206Z,998.45
2018-06-12T04:35:45.229Z,998.42
2018-06-12T04:36:45.246Z,998.41
2018-06-12T04:37:45.275Z,998.44
2018-06-12T04:38:45.303Z,998.42
2018-06-12T04:39:45.321Z,998.43
2018-06-12T04:40:45.350Z,998.43
2018-06-12T04:41:45.366Z,998.44
2018-06-12T04:42:45.395Z,998.43
2018-06-12T04:43:45.417Z,998.43
2018-06-12T04:44:45.448Z,998.47
2018-06-12T04:45:45.465Z,998.46
2018-06-12T04:46:45.488Z,998.47
2018-06-12T04:47:45.513Z,998.46
2018-06-12T04:48:45.541Z,998.48
2018-06-12T04:49:45.567Z,998.46
2018-06-12T04:50:45.582Z,998.46
2018-06-12T04:51:45.609Z,998.48
2018-06-12T04:52:45.627Z,998.48
2018-06-12T04:53:45.657Z,998.5
2018-06-12T04:54:45.684Z,998.51
2018-06-12T04:55:45.702Z,998.55
2018-06-12T04:56:45.730Z,998.53
2018-06-12T04:57:45.802Z,998.6
2018-06-12T04:58:45.774Z,998.57
2018-06-12T04:59:45.803Z,998.61
2018-06-12T05:00:45.821Z,998.59
2018-06-12T05:01:45.845Z,998.6
2018-06-12T05:02:45.871Z,998.58
2018-06-12T05:03:45.893Z,998.61
2018-06-12T05:04:45.918Z,998.61
2018-06-12T05:05:45.936Z,998.6
2018-06-12T05:06:45.965Z,998.62
2018-06-12T05:07:45.987Z,998.65
2018-06-12T05:08:46.013Z,998.67
2018-06-12T05:09:46.036Z,998.67
2018-06-12T05:10:46.062Z,998.64
2018-06-12T05:11:46.089Z,998.7
2018-06-12T05:12:46.109Z,998.68
2018-06-12T05:13:46.131Z,998.72
2018-06-12T05:14:46.154Z,998.71
2018-06-12T05:15:46.181Z,998.68
2018-06-12T05:16:46.201Z,998.71
2018-06-12T05:17:46.224Z,998.69
2018-06-12T05:18:46.244Z,998.71
2018-06-12T05:19:46.269Z,998.68
2018-06-12T05:20:46.291Z,998.65
2018-06-12T05:21:46.316Z,998.65
2018-06-12T05:22:46.341Z,998.61
2018-06-12T05:23:46.370Z,998.62
2018-06-12T05:24:46.385Z,998.67
2018-06-12T05:25:46.412Z,998.65
2018-06-12T05:26:46.433Z,998.69
2018-06-12T05:27:46.459Z,998.7
2018-06-12T05:28:46.479Z,998.73
2018-06-12T05:29:46.507Z,998.75
2018-06-12T05:30:46.536Z,998.83
2018-06-12T05:31:46.551Z,998.81
2018-06-12T05:32:46.580Z,998.85
2018-06-12T05:33:46.607Z,998.89
2018-06-12T05:34:46.629Z,998.93
2018-06-12T05:35:46.649Z,998.94
2018-06-12T05:36:46.671Z,998.9
2018-06-12T05:37:46.694Z,998.9
2018-06-12T05:38:46.719Z,998.9
2018-06-12T05:39:46.747Z,998.9
2018-06-12T05:40:46.771Z,998.94
2018-06-12T05:41:46.793Z,998.9
2018-06-12T05:42:46.810Z,998.94
2018-06-12T05:43:46.845Z,998.94
2018-06-12T05:44:46.861Z,998.95
2018-06-12T05:45:46.887Z,998.95
2018-06-12T05:46:46.973Z,998.98
2018-06-12T05:47:46.935Z,998.95
2018-06-12T05:48:46.961Z,998.95
2018-06-12T05:49:46.981Z,999.02
2018-06-12T05:50:47.009Z,999.01
2018-06-12T05:51:47.027Z,999.06
2018-06-12T05:52:47.054Z,999.08
2018-06-12T05:53:47.076Z,999.09
2018-06-12T05:54:47.103Z,999.11
2018-06-12T05:55:47.187Z,999.08
2018-06-12T05:56:47.152Z,999.15
2018-06-12T05:57:47.166Z,999.17
2018-06-12T05:58:47.198Z,999.16
2018-06-12T05:59:47.215Z,999.2
2018-06-12T06:00:47.239Z,999.21
2018-06-12T06:01:47.265Z,999.21
2018-06-12T06:02:47.284Z,999.26
2018-06-12T06:03:47.362Z,999.29
2018-06-12T06:04:47.337Z,999.31
2018-06-12T06:05:47.356Z,999.31
2018-06-12T06:06:47.382Z,999.33
2018-06-12T06:07:47.406Z,999.31
2018-06-12T06:08:47.483Z,999.36
2018-06-12T06:09:47.457Z,999.35
2018-06-12T06:10:47.474Z,999.38
2018-06-12T06:11:47.497Z,999.37
2018-06-12T06:12:47.526Z,999.38
2018-06-12T06:13:47.603Z,999.35
2018-06-12T06:14:47.578Z,999.41
2018-06-12T06:15:47.597Z,999.43
2018-06-12T06:16:47.624Z,999.4
2018-06-12T06:17:47.644Z,999.4
2018-06-12T06:18:47.663Z,999.39
2018-06-12T06:19:47.694Z,999.39
2018-06-12T06:20:47.711Z,999.4
2018-06-12T06:21:47.751Z,999.4
2018-06-12T06:22:47.843Z,999.36
2018-06-12T06:23:47.785Z,999.4
2018-06-12T06:24:47.810Z,999.38
2018-06-12T06:25:47.836Z,999.39
2018-06-12T06:26:47.857Z,999.39
2018-06-12T06:27:47.883Z,999.39
2018-06-12T06:28:48.009Z,999.4
2018-06-12T06:29:47.963Z,999.4
2018-06-12T06:30:47.959Z,999.43
2018-06-12T06:31:47.974Z,999.4
2018-06-12T06:32:47.997Z,999.42
2018-06-12T06:33:48.029Z,999.43
2018-06-12T06:34:48.051Z,999.43
2018-06-12T06:35:48.079Z,999.42
2018-06-12T06:36:48.094Z,999.46
2018-06-12T06:37:48.126Z,999.42
2018-06-12T06:38:48.146Z,999.43
2018-06-12T06:39:48.168Z,999.44
2018-06-12T06:40:48.188Z,999.45
2018-06-12T06:41:48.218Z,999.46
2018-06-12T06:42:48.249Z,999.44
2018-06-12T06:43:48.266Z,999.44
2018-06-12T06:44:48.290Z,999.41
2018-06-12T06:45:48.308Z,999.38
2018-06-12T06:46:48.346Z,999.37
2018-06-12T06:47:48.358Z,999.35
2018-06-12T06:48:48.431Z,999.38
2018-06-12T06:49:48.414Z,999.44
2018-06-12T06:50:48.433Z,999.47
2018-06-12T06:51:48.460Z,999.49
2018-06-12T06:52:48.475Z,999.49
2018-06-12T06:53:48.500Z,999.56
2018-06-12T06:54:48.524Z,999.58
2018-06-12T06:55:48.556Z,999.55
2018-06-12T06:56:48.578Z,999.54
2018-06-12T06:57:48.603Z,999.56
2018-06-12T06:58:48.694Z,999.55
2018-06-12T06:59:48.652Z,999.54
2018-06-12T07:00:48.671Z,999.52
2018-06-12T07:01:48.692Z,999.57
2018-06-12T07:02:48.718Z,999.54
2018-06-12T07:03:48.744Z,999.5
2018-06-12T07:04:48.765Z,999.47
2018-06-12T07:05:48.796Z,999.45
2018-06-12T07:06:48.815Z,999.46
2018-06-12T07:07:48.843Z,999.42
2018-06-12T07:08:48.917Z,999.43
2018-06-12T07:09:48.887Z,999.46
2018-06-12T07:10:48.914Z,999.39
2018-06-12T07:11:48.936Z,999.44
2018-06-12T07:12:48.955Z,999.41
2018-06-12T07:13:49.086Z,999.42
2018-06-12T07:14:49.018Z,999.39
2018-06-12T07:15:49.033Z,999.38
2018-06-12T07:16:49.055Z,999.43
2018-06-12T07:17:49.075Z,999.43
2018-06-12T07:18:49.113Z,999.48
2018-06-12T07:19:49.130Z,999.43
2018-06-12T07:20:49.152Z,999.47
2018-06-12T07:21:49.177Z,999.43
2018-06-12T07:22:49.205Z,999.42
2018-06-12T07:23:49.276Z,999.41
2018-06-12T07:24:49.250Z,999.4
2018-06-12T07:25:49.271Z,999.45
2018-06-12T07:26:49.298Z,999.49
2018-06-12T07:27:49.324Z,999.44
2018-06-12T07:28:49.342Z,999.49
2018-06-12T07:29:49.372Z,999.48
2018-06-12T07:30:49.395Z,999.46
2018-06-12T07:31:49.418Z,999.5
2018-06-12T07:32:49.444Z,999.49
2018-06-12T07:33:49.520Z,999.5
2018-06-12T07:34:49.496Z,999.57
2018-06-12T07:35:49.512Z,999.54
2018-06-12T07:36:49.541Z,999.51
2018-06-12T07:37:49.599Z,999.53
2018-06-12T07:38:49.596Z,999.53
2018-06-12T07:39:49.609Z,999.51
2018-06-12T07:40:49.640Z,999.53
2018-06-12T07:41:49.659Z,999.49
2018-06-12T07:42:49.691Z,999.51
2018-06-12T07:43:49.711Z,999.51
2018-06-12T07:44:49.738Z,999.52
2018-06-12T07:45:49.767Z,999.54
2018-06-12T07:46:49.788Z,999.53
2018-06-12T07:47:49.807Z,999.54
2018-06-12T07:48:49.830Z,999.6
2018-06-12T07:49:49.857Z,999.58
2018-06-12T07:50:49.884Z,999.55
2018-06-12T07:51:49.901Z,999.56
2018-06-12T07:52:49.930Z,999.58
2018-06-12T07:53:49.958Z,999.56
2018-06-12T07:54:49.977Z,999.55
2018-06-12T07:55:50.003Z,999.57
2018-06-12T07:56:50.025Z,999.58
2018-06-12T07:57:50.056Z,999.57
2018-06-12T07:58:50.077Z,999.55
2018-06-12T07:59:50.097Z,999.55
2018-06-12T08:00:50.144Z,999.55
2018-06-12T08:01:50.146Z,999.61
2018-06-12T08:02:50.182Z,999.55
2018-06-12T08:03:50.195Z,999.58
2018-06-12T08:04:50.220Z,999.54
2018-06-12T08:05:50.254Z,999.59
2018-06-12T08:06:50.272Z,999.61
2018-06-12T08:07:50.298Z,999.58
2018-06-12T08:08:50.322Z,999.57
2018-06-12T08:09:50.351Z,999.59
2018-06-12T08:10:50.375Z,999.6
2018-06-12T08:11:50.394Z,999.58
2018-06-12T08:12:50.539Z,999.6
2018-06-12T08:13:50.448Z,999.59
2018-06-12T08:14:50.466Z,999.58
2018-06-12T08:15:50.491Z,999.53
2018-06-12T08:16:50.518Z,999.51
2018-06-12T08:17:50.545Z,999.54
2018-06-12T08:18:50.570Z,999.49
2018-06-12T08:19:50.591Z,999.49
2018-06-12T08:20:50.619Z,999.52
2018-06-12T08:21:50.643Z,999.44
2018-06-12T08:22:50.664Z,999.47
2018-06-12T08:23:50.763Z,999.46
2018-06-12T08:24:50.714Z,999.45
2018-06-12T08:25:50.744Z,999.43
2018-06-12T08:26:50.773Z,999.44
2018-06-12T08:27:50.791Z,999.48
2018-06-12T08:28:50.816Z,999.49
2018-06-12T08:29:50.951Z,999.5
2018-06-12T08:30:50.870Z,999.52
2018-06-12T08:31:50.891Z,999.47
2018-06-12T08:32:50.916Z,999.48
2018-06-12T08:33:50.943Z,999.47
2018-06-12T08:34:50.969Z,999.51
2018-06-12T08:35:50.989Z,999.54
2018-06-12T08:36:51.016Z,999.5
2018-06-12T08:37:51.040Z,999.49
2018-06-12T08:38:51.071Z,999.5
2018-06-12T08:39:51.143Z,999.48
2018-06-12T08:40:51.171Z,999.49
2018-06-12T08:41:51.143Z,999.46
2018-06-12T08:42:51.167Z,999.47
2018-06-12T08:43:51.194Z,999.44
2018-06-12T08:44:51.219Z,999.46
2018-06-12T08:45:51.240Z,999.41
2018-06-12T08:46:51.263Z,999.44
2018-06-12T08:47:51.292Z,999.43
2018-06-12T08:48:51.312Z,999.42
2018-06-12T08:49:51.356Z,999.44
2018-06-12T08:50:51.373Z,999.46
2018-06-12T08:51:51.391Z,999.48
2018-06-12T08:52:51.421Z,999.45
2018-06-12T08:53:51.438Z,999.47
2018-06-12T08:54:51.471Z,999.45
2018-06-12T08:55:51.494Z,999.49
2018-06-12T08:56:51.513Z,999.44
2018-06-12T08:57:51.542Z,999.48
2018-06-12T08:58:51.572Z,999.48
2018-06-12T08:59:51.598Z,999.51
2018-06-12T09:00:51.618Z,999.51
2018-06-12T09:01:51.648Z,999.52
2018-06-12T09:02:51.672Z,999.51
2018-06-12T09:03:51.693Z,999.51
2018-06-12T09:04:51.720Z,999.51
2018-06-12T09:05:51.749Z,999.53
2018-06-12T09:06:51.777Z,999.5
2018-06-12T09:07:51.798Z,999.49
2018-06-12T09:08:51.820Z,999.52
2018-06-12T09:09:51.856Z,999.51
2018-06-12T09:10:51.876Z,999.51
2018-06-12T09:11:51.901Z,999.53
2018-06-12T09:12:51.926Z,999.49
2018-06-12T09:13:51.951Z,999.53
2018-06-12T09:14:51.974Z,999.54
2018-06-12T09:15:52.001Z,999.53
2018-06-12T09:16:52.026Z,999.5
2018-06-12T09:17:52.056Z,999.51
2018-06-12T09:18:52.080Z,999.52
2018-06-12T09:19:52.102Z,999.56
2018-06-12T09:20:52.130Z,999.57
2018-06-12T09:21:52.158Z,999.54
2018-06-12T09:22:52.182Z,999.54
2018-06-12T09:23:52.208Z,999.49
2018-06-12T09:24:52.234Z,999.48
2018-06-12T09:25:52.257Z,999.55
2018-06-12T09:26:52.287Z,999.51
2018-06-12T09:27:52.308Z,999.53
2018-06-12T09:28:52.340Z,999.52
2018-06-12T09:29:52.360Z,999.52
2018-06-12T09:30:52.387Z,999.47
2018-06-12T09:31:52.413Z,999.48
2018-06-12T09:32:52.447Z,999.47
2018-06-12T09:33:52.467Z,999.46
2018-06-12T09:34:52.493Z,999.48
2018-06-12T09:35:52.521Z,999.49
2018-06-12T09:36:52.550Z,999.48
2018-06-12T09:37:52.576Z,999.5
2018-06-12T09:38:52.606Z,999.53
2018-06-12T09:39:52.625Z,999.52
2018-06-12T09:40:52.651Z,999.5
2018-06-12T09:41:52.681Z,999.53
2018-06-12T09:42:52.709Z,999.49
2018-06-12T09:43:52.727Z,999.5
2018-06-12T09:44:52.765Z,999.52
2018-06-12T09:45:52.784Z,999.53
2018-06-12T09:46:52.810Z,999.56
2018-06-12T09:47:52.841Z,999.58
2018-06-12T09:48:52.865Z,999.54
2018-06-12T09:49:52.898Z,999.51
2018-06-12T09:50:52.915Z,999.57
2018-06-12T09:51:52.944Z,999.51
2018-06-12T09:52:52.971Z,999.53
2018-06-12T09:53:53.001Z,999.51
2018-06-12T09:54:53.022Z,999.48
2018-06-12T09:55:53.054Z,999.51
2018-06-12T09:56:53.080Z,999.54
2018-06-12T09:57:53.107Z,999.51
2018-06-12T09:58:53.133Z,999.53
2018-06-12T09:59:53.155Z,999.5
2018-06-12T10:00:53.179Z,999.48
2018-06-12T10:01:53.215Z,999.52
2018-06-12T10:02:53.231Z,999.52
2018-06-12T10:03:53.267Z,999.53
2018-06-12T10:04:53.341Z,999.53
2018-06-12T10:05:53.312Z,999.54
2018-06-12T10:06:53.339Z,999.53
2018-06-12T10:07:53.398Z,999.5
2018-06-12T10:08:53.398Z,999.54
2018-06-12T10:09:53.427Z,999.58
2018-06-12T10:10:53.454Z,999.56
2018-06-12T10:11:53.481Z,999.58
2018-06-12T10:12:53.505Z,999.58
2018-06-12T10:13:53.530Z,999.57
2018-06-12T10:14:53.556Z,999.59
2018-06-12T10:15:53.585Z,999.57
2018-06-12T10:16:53.613Z,999.53
2018-06-12T10:17:53.637Z,999.53
2018-06-12T10:18:53.718Z,999.54
2018-06-12T10:19:53.691Z,999.55
2018-06-12T10:20:53.718Z,999.55
2018-06-12T10:21:53.748Z,999.5
2018-06-12T10:22:53.776Z,999.47
2018-06-12T10:23:53.803Z,999.49
2018-06-12T10:24:53.836Z,999.55
2018-06-12T10:25:53.853Z,999.55
2018-06-12T10:26:53.889Z,999.5
2018-06-12T10:27:53.909Z,999.5
2018-06-12T10:28:53.938Z,999.51
2018-06-12T10:29:53.967Z,999.56
2018-06-12T10:30:53.989Z,999.55
2018-06-12T10:31:54.026Z,999.55
2018-06-12T10:32:54.050Z,999.56
2018-06-12T10:33:54.073Z,999.59
2018-06-12T10:34:54.110Z,999.59
2018-06-12T10:35:54.135Z,999.55
2018-06-12T10:36:54.161Z,999.53
2018-06-12T10:37:54.189Z,999.57
2018-06-12T10:38:54.210Z,999.52
2018-06-12T10:39:54.242Z,999.53
2018-06-12T10:40:54.266Z,999.53
2018-06-12T10:41:54.300Z,999.56
2018-06-12T10:42:54.326Z,999.52
2018-06-12T10:43:54.350Z,999.57
2018-06-12T10:44:54.386Z,999.57
2018-06-12T10:45:54.405Z,999.54
2018-06-12T10:46:54.440Z,999.58
2018-06-12T10:47:54.466Z,999.55
2018-06-12T10:48:54.495Z,999.52
2018-06-12T10:49:54.521Z,999.47
2018-06-12T10:50:54.553Z,999.5
2018-06-12T10:51:54.574Z,999.46
2018-06-12T10:52:54.606Z,999.48
2018-06-12T10:53:54.629Z,999.43
2018-06-12T10:54:54.662Z,999.44
2018-06-12T10:55:54.687Z,999.43
2018-06-12T10:56:54.718Z,999.41
2018-06-12T10:57:54.742Z,999.4
2018-06-12T10:58:54.775Z,999.38
2018-06-12T10:59:54.807Z,999.44
2018-06-12T11:00:54.831Z,999.44
2018-06-12T11:01:54.864Z,999.47
2018-06-12T11:02:54.887Z,999.4
2018-06-12T11:03:54.916Z,999.37
2018-06-12T11:04:54.948Z,999.4
2018-06-12T11:05:54.969Z,999.44
2018-06-12T11:06:55.000Z,999.47
2018-06-12T11:07:55.029Z,999.46
2018-06-12T11:08:55.054Z,999.5
2018-06-12T11:09:55.083Z,999.5
2018-06-12T11:10:55.138Z,999.49
2018-06-12T11:11:55.147Z,999.47
2018-06-12T11:12:55.175Z,999.47
2018-06-12T11:13:55.197Z,999.47
2018-06-12T11:14:55.226Z,999.47
2018-06-12T11:15:55.310Z,999.48
2018-06-12T11:16:55.292Z,999.49
2018-06-12T11:17:55.313Z,999.44
2018-06-12T11:18:55.367Z,999.44
2018-06-12T11:19:55.378Z,999.47
2018-06-12T11:20:55.406Z,999.49
2018-06-12T11:21:55.434Z,999.52
2018-06-12T11:22:55.465Z,999.53
2018-06-12T11:23:55.492Z,999.51
2018-06-12T11:24:55.524Z,999.46
2018-06-12T11:25:55.597Z,999.46
2018-06-12T11:26:55.581Z,999.45
2018-06-12T11:27:55.609Z,999.5
2018-06-12T11:28:55.642Z,999.48
2018-06-12T11:29:55.664Z,999.5
2018-06-12T11:30:55.703Z,999.52
2018-06-12T11:31:55.723Z,999.45
2018-06-12T11:32:55.755Z,999.53
2018-06-12T11:33:55.788Z,999.45
2018-06-12T11:34:55.816Z,999.47
2018-06-12T11:35:55.840Z,999.49
2018-06-12T11:36:55.867Z,999.45
2018-06-12T11:37:55.901Z,999.48
2018-06-12T11:38:55.932Z,999.45
2018-06-12T11:39:55.962Z,999.52
2018-06-12T11:40:55.985Z,999.46
2018-06-12T11:41:56.016Z,999.45
2018-06-12T11:42:56.046Z,999.5
2018-06-12T11:43:56.076Z,999.48
2018-06-12T11:44:56.108Z,999.45
2018-06-12T11:45:56.140Z,999.47
2018-06-12T11:46:56.173Z,999.49
2018-06-12T11:47:56.195Z,999.48
2018-06-12T11:48:56.227Z,999.5
2018-06-12T11:49:56.263Z,999.4
2018-06-12T11:50:56.337Z,999.44
2018-06-12T11:51:56.321Z,999.45
2018-06-12T11:52:56.347Z,999.44
2018-06-12T11:53:56.379Z,999.44
2018-06-12T11:54:56.412Z,999.45
2018-06-12T11:55:56.436Z,999.48
2018-06-12T11:56:56.473Z,999.45
2018-06-12T11:57:56.499Z,999.42
2018-06-12T11:58:56.532Z,999.42
2018-06-12T11:59:56.559Z,999.41
2018-06-12T12:00:56.594Z,999.42
2018-06-12T12:01:56.628Z,999.37
2018-06-12T12:02:56.651Z,999.35
2018-06-12T12:03:56.688Z,999.34
2018-06-12T12:04:56.716Z,999.33
2018-06-12T12:05:56.746Z,999.36
2018-06-12T12:06:56.775Z,999.36
2018-06-12T12:07:56.815Z,999.4
2018-06-12T12:08:56.837Z,999.35
2018-06-12T12:09:56.863Z,999.33
2018-06-12T12:10:56.898Z,999.3
2018-06-12T12:11:56.926Z,999.29
2018-06-12T12:12:56.965Z,999.25
2018-06-12T12:13:56.986Z,999.19
2018-06-12T12:14:57.020Z,999.19
2018-06-12T12:15:57.056Z,999.11
2018-06-12T12:16:57.122Z,999.12
2018-06-12T12:17:57.114Z,999.08
2018-06-12T12:18:57.150Z,999.11
2018-06-12T12:19:57.179Z,999.12
2018-06-12T12:20:57.206Z,999.14
2018-06-12T12:21:57.237Z,999.15
2018-06-12T12:22:57.269Z,999.21
2018-06-12T12:23:57.299Z,999.17
2018-06-12T12:24:57.330Z,999.12
2018-06-12T12:25:57.364Z,999.15
2018-06-12T12:26:57.445Z,999.17
2018-06-12T12:27:57.424Z,999.19
2018-06-12T12:28:57.450Z,999.18
2018-06-12T12:29:57.487Z,999.12
2018-06-12T12:30:57.522Z,999.17
2018-06-12T12:31:57.598Z,999.1